Terminal Aerodrome Forecast
Issued by NWS

Home | Current Version | Previous Version | Graphics & Text | Print | Product List | Glossary On
Versions: 1 2 3 4 5 6 7 8 9 10 11 12 13 14 15 16
000
FTUS42 KMHX 051140
TAFISO
TAF
KISO 051140Z 0512/0612 33006KT 5SM -RA OVC005
     FM051330 33007KT P6SM BKN007
     FM051500 34007KT P6SM SCT007 BKN020
     FM051700 35007KT P6SM SCT050 BKN100
     FM060600 04008KT 5SM -RA SCT015 OVC035
      AMD LTD TO VIS AND WIND=

USA.gov is the U.S. government's official web portal to all federal, state and local government web resources and services.